Time;durP1;ratioP1;P1;durP2;ratioP2;P2;SDS_P1;SDS_P2;PMS_P1;PMS_P2;Temp;Humidity;BMP_temperature;BMP_pressure;BME280_temperature;BME280_humidity;BME280_pressure;Samples;Min_cycle;Max_cycle;Signal;HPM_P1;HPM_P2
2020/12/16 00:02:17;;;;;;;21.48;13.27;;;6.90;99.90;;;;;;5035413;28;20452;-68
2020/12/16 00:04:44;;;;;;;23.67;13.55;;;6.90;99.90;;;;;;5033978;28;20084;-67
2020/12/16 00:07:11;;;;;;;25.17;14.35;;;6.90;99.90;;;;;;5035154;28;20194;-67
2020/12/16 00:09:40;;;;;;;22.92;14.80;;;6.90;99.90;;;;;;5035123;28;20490;-67
2020/12/16 00:12:09;;;;;;;25.57;15.97;;;6.90;99.90;;;;;;5035287;28;20045;-67
2020/12/16 00:14:36;;;;;;;19.92;13.77;;;6.80;99.90;;;;;;5034961;28;20511;-67
2020/12/16 00:17:05;;;;;;;21.88;13.50;;;6.70;99.90;;;;;;5035311;28;20052;-67
2020/12/16 00:19:33;;;;;;;22.58;14.23;;;6.70;99.90;;;;;;5035030;28;20053;-67
2020/12/16 00:22:00;;;;;;;22.02;13.27;;;6.70;99.90;;;;;;5034782;28;20049;-67
2020/12/16 00:24:27;;;;;;;26.20;14.25;;;6.50;99.90;;;;;;5034737;28;20053;-67
2020/12/16 00:26:53;;;;;;;20.13;12.63;;;6.50;99.90;;;;;;5060348;28;20053;-67
2020/12/16 00:29:20;;;;;;;23.55;13.48;;;6.50;99.90;;;;;;5074436;28;20079;-67
2020/12/16 00:31:46;;;;;;;23.92;13.18;;;6.40;99.90;;;;;;5074679;28;20472;-67
2020/12/16 00:34:13;;;;;;;26.65;14.25;;;6.30;99.90;;;;;;5074649;28;20405;-67
2020/12/16 00:36:41;;;;;;;24.77;13.98;;;6.20;99.90;;;;;;5074814;28;20456;-67
2020/12/16 00:39:09;;;;;;;28.58;15.55;;;6.20;99.90;;;;;;5074388;28;20055;-67
2020/12/16 00:41:36;;;;;;;24.92;13.45;;;6.20;99.90;;;;;;5074343;28;20053;-67
2020/12/16 00:44:04;;;;;;;24.92;12.60;;;6.10;99.90;;;;;;5068054;28;20079;-67
2020/12/16 00:46:33;;;;;;;39.55;15.00;;;6.10;99.90;;;;;;5074057;28;20099;-67
2020/12/16 00:49:00;;;;;;;43.28;15.00;;;6.00;99.90;;;;;;5074165;28;20059;-67
2020/12/16 00:51:27;;;;;;;26.20;12.90;;;6.00;99.90;;;;;;5074080;28;20098;-67
2020/12/16 00:53:56;;;;;;;30.88;13.82;;;5.90;99.90;;;;;;5073952;28;20072;-67
2020/12/16 00:56:24;;;;;;;42.40;14.93;;;5.90;99.90;;;;;;5074164;28;20133;-67
2020/12/16 00:58:50;;;;;;;90.93;17.67;;;5.90;99.90;;;;;;5074180;28;20080;-67
2020/12/16 01:01:17;;;;;;;81.40;16.98;;;5.90;99.90;;;;;;5073682;28;20048;-67
2020/12/16 01:03:43;;;;;;;90.88;16.58;;;5.80;99.90;;;;;;5073736;28;20044;-67
2020/12/16 01:06:12;;;;;;;47.75;15.45;;;5.90;99.90;;;;;;5073964;28;20099;-67
2020/12/16 01:08:39;;;;;;;57.72;15.35;;;5.90;99.90;;;;;;5073671;28;20076;-67
2020/12/16 01:11:10;;;;;;;110.72;20.80;;;5.90;99.90;;;;;;5073695;28;20102;-67
2020/12/16 01:13:37;;;;;;;79.65;16.67;;;6.00;99.90;;;;;;5073703;28;20041;-67
2020/12/16 01:16:04;;;;;;;51.10;15.98;;;5.80;99.90;;;;;;5072276;28;20135;-67
2020/12/16 01:18:30;;;;;;;50.00;15.65;;;5.60;99.90;;;;;;5073758;28;20532;-67
2020/12/16 01:20:59;;;;;;;51.65;14.30;;;5.50;99.90;;;;;;5073531;28;20130;-67
2020/12/16 01:23:28;;;;;;;35.17;13.15;;;5.40;99.90;;;;;;5073168;28;20480;-67
2020/12/16 01:25:58;;;;;;;74.25;15.10;;;5.30;99.90;;;;;;5073046;28;20071;-67
2020/12/16 01:28:28;;;;;;;39.42;12.98;;;5.30;99.90;;;;;;5073570;28;20144;-67
2020/12/16 01:30:55;;;;;;;29.67;12.40;;;5.30;99.90;;;;;;5073428;28;20048;-67
2020/12/16 01:33:21;;;;;;;18.50;10.65;;;5.40;99.90;;;;;;5072548;28;20496;-67
2020/12/16 01:35:48;;;;;;;89.03;18.75;;;5.60;99.90;;;;;;5073209;28;20079;-67
2020/12/16 01:38:15;;;;;;;50.20;15.13;;;5.90;99.90;;;;;;5073579;28;20052;-67
2020/12/16 01:40:41;;;;;;;101.28;20.50;;;5.70;99.90;;;;;;5073432;28;20053;-67
2020/12/16 01:43:08;;;;;;;61.50;16.70;;;5.80;99.90;;;;;;5073113;28;20045;-67
2020/12/16 01:45:35;;;;;;;66.40;18.13;;;6.00;99.90;;;;;;5073355;28;20056;-67
2020/12/16 01:48:02;;;;;;;105.45;19.27;;;6.10;99.90;;;;;;5072644;28;20082;-67
2020/12/16 01:50:28;;;;;;;44.50;16.55;;;6.10;99.90;;;;;;5073260;28;20063;-67
2020/12/16 01:52:58;;;;;;;35.03;17.20;;;6.20;99.90;;;;;;5073312;28;20044;-67
2020/12/16 01:55:27;;;;;;;56.28;16.85;;;6.30;99.90;;;;;;5073020;28;20497;-67
2020/12/16 01:57:59;;;;;;;59.05;18.67;;;6.40;99.90;;;;;;5073127;28;20497;-67
2020/12/16 02:00:27;;;;;;;47.28;17.73;;;6.60;99.90;;;;;;5073067;28;20056;-67
2020/12/16 02:02:58;;;;;;;33.15;16.20;;;6.70;99.90;;;;;;5072664;28;20048;-67
2020/12/16 02:05:26;;;;;;;43.05;18.13;;;6.70;99.90;;;;;;5073112;28;20051;-67
2020/12/16 02:07:55;;;;;;;40.05;17.75;;;6.90;99.90;;;;;;5073103;28;20090;-67
2020/12/16 02:10:22;;;;;;;34.85;16.48;;;6.80;99.90;;;;;;5072905;28;20049;-67
2020/12/16 02:12:48;;;;;;;41.60;17.58;;;6.80;99.90;;;;;;5073110;28;20101;-67
2020/12/16 02:15:15;;;;;;;29.35;16.63;;;6.70;99.90;;;;;;5072713;28;20477;-67
2020/12/16 02:17:42;;;;;;;38.35;15.38;;;6.70;99.90;;;;;;5072405;28;20777;-67
2020/12/16 02:20:14;;;;;;;33.42;16.33;;;6.90;99.90;;;;;;5072876;28;20394;-68
2020/12/16 02:22:41;;;;;;;26.38;14.77;;;7.00;99.90;;;;;;5072801;28;20052;-67
2020/12/16 02:25:10;;;;;;;23.48;14.13;;;7.00;99.90;;;;;;5072785;28;20052;-68
2020/12/16 02:27:38;;;;;;;19.20;13.05;;;7.00;99.90;;;;;;5074538;28;20109;-67
2020/12/16 02:30:05;;;;;;;17.67;12.07;;;6.90;99.90;;;;;;5076769;28;20056;-67
2020/12/16 02:32:33;;;;;;;20.02;13.35;;;7.00;99.90;;;;;;5076794;28;20086;-67
2020/12/16 02:34:59;;;;;;;21.13;13.93;;;7.20;99.90;;;;;;5077074;28;20489;-67
2020/12/16 02:37:26;;;;;;;19.02;12.57;;;7.30;99.90;;;;;;5076779;28;20052;-67
2020/12/16 02:39:55;;;;;;;17.08;11.20;;;7.30;99.90;;;;;;5076743;28;20501;-68
2020/12/16 02:42:24;;;;;;;15.25;10.10;;;7.30;99.90;;;;;;5076745;28;20425;-67
2020/12/16 02:44:51;;;;;;;19.00;11.27;;;7.10;99.90;;;;;;5076476;28;20079;-67
2020/12/16 02:47:17;;;;;;;19.13;12.10;;;7.20;99.90;;;;;;5075931;28;20076;-67
2020/12/16 02:49:44;;;;;;;18.60;12.32;;;7.10;99.90;;;;;;5076450;28;20056;-67
2020/12/16 02:52:13;;;;;;;19.77;13.43;;;7.00;99.90;;;;;;5076351;28;20048;-67
2020/12/16 02:54:40;;;;;;;22.00;14.05;;;6.80;99.90;;;;;;5076305;28;20041;-67
2020/12/16 02:57:07;;;;;;;26.90;15.88;;;6.80;99.90;;;;;;5076500;28;20098;-67
2020/12/16 02:59:34;;;;;;;22.27;13.75;;;6.80;99.90;;;;;;5076362;28;20497;-67
2020/12/16 03:02:01;;;;;;;23.55;14.55;;;6.90;99.90;;;;;;5076207;28;20048;-67
2020/12/16 03:04:31;;;;;;;23.15;14.10;;;6.80;99.90;;;;;;5075645;28;20457;-67
2020/12/16 03:06:57;;;;;;;;;;;6.80;99.90;;;;;;5077219;28;20094;-67
2020/12/16 03:09:25;;;;;;;21.48;13.05;;;6.70;99.90;;;;;;5076130;28;19963;-67
2020/12/16 03:11:53;;;;;;;22.30;13.65;;;6.70;99.90;;;;;;5076400;28;20493;-67
2020/12/16 03:14:20;;;;;;;21.05;13.75;;;6.60;99.90;;;;;;5075924;28;20044;-67
2020/12/16 03:16:52;;;;;;;24.52;14.60;;;6.40;99.90;;;;;;5076564;28;20465;-67
2020/12/16 03:19:19;;;;;;;23.73;14.48;;;6.40;99.90;;;;;;5075498;28;20048;-67
2020/12/16 03:21:45;;;;;;;25.15;14.88;;;6.30;99.90;;;;;;5076175;28;20052;-67
2020/12/16 03:24:12;;;;;;;24.23;14.48;;;6.10;99.90;;;;;;5075610;28;20453;-67
2020/12/16 03:26:40;;;;;;;25.48;15.50;;;6.20;99.90;;;;;;5075547;28;20127;-67
2020/12/16 03:29:07;;;;;;;22.23;14.15;;;6.00;99.90;;;;;;5075954;28;20106;-67
2020/12/16 03:31:36;;;;;;;28.95;14.85;;;5.80;99.90;;;;;;5075957;28;20075;-67
2020/12/16 03:34:04;;;;;;;75.32;18.70;;;5.50;99.90;;;;;;5075276;28;20508;-67
2020/12/16 03:36:30;;;;;;;57.42;16.75;;;5.40;99.90;;;;;;5075535;28;20097;-67
2020/12/16 03:38:57;;;;;;;82.13;18.90;;;5.40;99.90;;;;;;5074578;28;20045;-67
2020/12/16 03:41:23;;;;;;;113.82;21.02;;;5.40;99.90;;;;;;5075710;28;20049;-67
2020/12/16 03:43:51;;;;;;;68.05;18.02;;;5.60;99.90;;;;;;5075334;28;20064;-67
2020/12/16 03:46:18;;;;;;;118.35;20.42;;;5.60;99.90;;;;;;5076093;28;20048;-68
2020/12/16 03:48:45;;;;;;;93.90;19.77;;;5.80;99.90;;;;;;5075177;28;20114;-68
2020/12/16 03:51:16;;;;;;;57.45;19.67;;;5.60;99.90;;;;;;5075296;28;20064;-68
2020/12/16 03:53:43;;;;;;;35.63;16.58;;;5.70;99.90;;;;;;5075482;28;20045;-68
2020/12/16 03:56:11;;;;;;;51.55;19.73;;;5.80;99.90;;;;;;5074955;28;20076;-68
2020/12/16 03:58:41;;;;;;;49.25;19.63;;;5.80;99.90;;;;;;5075359;28;20060;-68
2020/12/16 04:01:09;;;;;;;45.13;19.08;;;5.90;99.90;;;;;;5075403;28;20132;-68
2020/12/16 04:03:36;;;;;;;50.83;19.58;;;6.00;99.90;;;;;;5075018;28;20056;-68
2020/12/16 04:06:05;;;;;;;47.85;19.17;;;6.00;99.90;;;;;;5074350;28;20135;-68
2020/12/16 04:08:33;;;;;;;78.63;19.58;;;6.10;99.90;;;;;;5074828;28;20086;-68
2020/12/16 04:11:00;;;;;;;55.72;18.20;;;6.10;99.90;;;;;;5075657;28;20478;-68
2020/12/16 04:13:26;;;;;;;80.45;21.13;;;6.20;99.90;;;;;;5075068;28;20130;-68
2020/12/16 04:15:53;;;;;;;80.93;19.05;;;6.30;99.90;;;;;;5075369;28;20501;-68
2020/12/16 04:18:19;;;;;;;72.63;20.02;;;6.10;99.90;;;;;;5074825;28;20455;-68
2020/12/16 04:20:46;;;;;;;53.10;17.42;;;6.10;99.90;;;;;;5074743;28;20408;-68
2020/12/16 04:23:12;;;;;;;57.28;16.65;;;6.10;99.90;;;;;;5075645;28;20486;-68
2020/12/16 04:25:40;;;;;;;59.67;16.35;;;6.20;99.90;;;;;;5074632;28;20504;-68
2020/12/16 04:28:07;;;;;;;49.10;16.92;;;6.10;99.90;;;;;;5074683;28;20048;-68
2020/12/16 04:30:34;;;;;;;65.60;18.40;;;6.10;99.90;;;;;;5074682;28;20064;-68
2020/12/16 04:33:00;;;;;;;81.00;21.02;;;6.20;99.90;;;;;;5075208;28;20058;-68
2020/12/16 04:35:27;;;;;;;61.28;20.38;;;5.90;99.90;;;;;;5074702;28;20090;-68
2020/12/16 04:37:54;;;;;;;69.07;18.92;;;5.90;99.90;;;;;;5074547;28;20052;-68
2020/12/16 04:40:21;;;;;;;57.85;18.77;;;5.90;99.90;;;;;;5074176;28;20059;-68
2020/12/16 04:43:02;;;;;;;50.78;18.65;;;5.80;99.90;;;;;;5074221;28;20417;-68
2020/12/16 04:45:29;;;;;;;68.10;20.23;;;5.50;99.90;;;;;;5074496;28;20092;-68
2020/12/16 04:47:56;;;;;;;49.95;18.23;;;5.40;99.90;;;;;;5074629;28;20084;-68
2020/12/16 04:50:23;;;;;;;71.32;18.08;;;5.20;99.90;;;;;;5074014;28;20088;-68
2020/12/16 04:52:53;;;;;;;55.72;18.85;;;5.20;99.90;;;;;;5074203;28;20405;-68
2020/12/16 04:55:21;;;;;;;59.83;18.58;;;5.40;99.90;;;;;;5074029;28;20141;-68
2020/12/16 04:57:51;;;;;;;39.22;15.73;;;5.40;99.90;;;;;;5073814;28;20048;-68
2020/12/16 05:00:20;;;;;;;40.97;17.23;;;5.40;99.90;;;;;;5074125;28;20135;-68
2020/12/16 05:02:52;;;;;;;34.65;15.20;;;5.30;99.90;;;;;;5073822;28;20064;-68
2020/12/16 05:05:18;;;;;;;34.35;14.98;;;5.30;99.90;;;;;;5073887;28;20416;-68
2020/12/16 05:07:48;;;;;;;58.25;16.17;;;5.10;99.90;;;;;;5073741;28;20055;-68
2020/12/16 05:10:16;;;;;;;45.35;17.13;;;4.90;99.90;;;;;;5053669;28;20432;-68
2020/12/16 05:12:43;;;;;;;48.67;16.85;;;5.10;99.90;;;;;;5053894;28;20071;-68
2020/12/16 05:15:23;;;;;;;50.60;16.30;;;4.90;99.90;;;;;;5053687;28;20135;-68
2020/12/16 05:18:07;;;;;;;50.28;16.20;;;4.60;99.90;;;;;;5053334;28;20095;-68
2020/12/16 05:20:33;;;;;;;85.32;18.25;;;4.40;99.90;;;;;;5053467;28;20088;-68
2020/12/16 05:23:01;;;;;;;63.50;16.77;;;4.30;99.90;;;;;;5057188;28;20086;-68
2020/12/16 05:25:27;;;;;;;53.58;17.08;;;4.20;99.90;;;;;;5073654;28;20454;-68
2020/12/16 05:27:59;;;;;;;87.05;18.73;;;4.40;99.90;;;;;;5073374;28;20060;-68
2020/12/16 05:30:27;;;;;;;43.60;15.27;;;4.60;99.90;;;;;;5073132;28;20070;-68
2020/12/16 05:32:54;;;;;;;103.18;22.83;;;4.60;99.90;;;;;;5073414;28;20060;-68
2020/12/16 05:35:26;;;;;;;28.30;14.15;;;4.80;99.90;;;;;;5073026;28;20052;-68
2020/12/16 05:38:02;;;;;;;20.15;12.70;;;4.90;99.90;;;;;;5073288;28;20076;-68
2020/12/16 05:40:30;;;;;;;22.80;12.73;;;5.00;99.90;;;;;;5073269;28;20102;-68
2020/12/16 05:42:57;;;;;;;16.27;11.20;;;5.20;99.90;;;;;;5073016;28;20497;-68
2020/12/16 05:45:26;;;;;;;19.67;13.00;;;5.20;99.90;;;;;;5073111;28;20048;-68
2020/12/16 05:48:09;;;;;;;20.25;13.45;;;5.30;99.90;;;;;;5073213;28;20056;-68
2020/12/16 05:50:39;;;;;;;17.00;11.75;;;5.30;99.90;;;;;;5071661;28;20079;-68
2020/12/16 05:53:14;;;;;;;17.20;11.85;;;5.20;99.90;;;;;;5072609;28;20044;-68
2020/12/16 05:55:41;;;;;;;20.45;12.93;;;5.30;99.90;;;;;;5072945;28;20052;-68
2020/12/16 05:58:10;;;;;;;21.63;13.43;;;5.20;99.90;;;;;;5070913;28;20076;-68
2020/12/16 06:00:45;;;;;;;23.97;13.67;;;5.10;99.90;;;;;;5072546;28;20060;-68
2020/12/16 06:03:19;;;;;;;25.05;14.30;;;5.00;99.90;;;;;;5072663;28;20417;-68
2020/12/16 06:05:51;;;;;;;23.45;14.52;;;5.00;99.90;;;;;;5052973;28;20102;-68
2020/12/16 06:08:19;;;;;;;23.20;13.90;;;5.10;99.90;;;;;;5052790;28;20086;-68
2020/12/16 06:10:48;;;;;;;22.10;13.10;;;5.10;99.90;;;;;;5066938;28;20121;-68
2020/12/16 06:13:16;;;;;;;24.20;13.85;;;5.10;99.90;;;;;;5072431;28;20128;-68
2020/12/16 06:15:54;;;;;;;25.65;14.90;;;5.20;99.90;;;;;;5071279;28;20048;-68
2020/12/16 06:18:26;;;;;;;27.13;13.60;;;5.10;99.90;;;;;;5072460;28;20446;-68
2020/12/16 06:20:53;;;;;;;27.95;14.38;;;5.10;99.90;;;;;;5072777;28;20465;-68
2020/12/16 06:23:38;;;;;;;30.23;14.98;;;5.00;99.90;;;;;;5072741;28;20060;-68
2020/12/16 06:26:07;;;;;;;42.58;15.52;;;4.80;99.90;;;;;;5072443;28;20102;-68
2020/12/16 06:28:34;;;;;;;42.15;14.98;;;4.70;99.90;;;;;;5072822;28;20059;-68
2020/12/16 06:31:17;;;;;;;37.10;14.38;;;4.40;99.90;;;;;;5072680;28;20560;-68
2020/12/16 06:33:51;;;;;;;62.53;16.02;;;4.20;99.90;;;;;;5059830;28;20497;-68
2020/12/16 06:36:21;;;;;;;54.22;14.90;;;4.20;99.90;;;;;;5072781;28;20459;-68
2020/12/16 06:38:48;;;;;;;42.80;14.55;;;4.20;99.90;;;;;;5070228;28;20044;-68
2020/12/16 06:41:21;;;;;;;41.78;14.38;;;4.10;99.90;;;;;;5069915;28;20131;-68
2020/12/16 06:43:49;;;;;;;41.25;14.25;;;4.20;99.90;;;;;;5070073;28;20040;-68
2020/12/16 06:46:49;;;;;;;36.25;13.77;;;4.10;99.90;;;;;;5067614;28;20457;-68
2020/12/16 06:49:31;;;;;;;34.13;13.60;;;4.10;99.90;;;;;;5067635;28;20052;-68
2020/12/16 06:51:59;;;;;;;23.25;13.18;;;4.00;99.90;;;;;;5072940;28;20060;-68
2020/12/16 06:54:27;;;;;;;44.22;15.75;;;4.10;99.90;;;;;;5071445;28;20534;-68
2020/12/16 06:57:21;;;;;;;39.15;15.32;;;4.20;99.90;;;;;;5071799;28;20143;-68
2020/12/16 06:59:51;;;;;;;67.57;17.15;;;4.20;99.90;;;;;;5052355;28;20084;-68
2020/12/16 07:02:23;;;;;;;79.72;19.50;;;4.20;99.90;;;;;;5056224;28;20056;-68
2020/12/16 07:04:51;;;;;;;57.97;20.92;;;4.20;99.90;;;;;;5063650;28;20507;-68
2020/12/16 07:07:43;;;;;;;80.72;20.90;;;4.30;99.90;;;;;;5064992;28;20076;-68
2020/12/16 07:10:47;;;;;;;114.07;20.70;;;4.30;99.90;;;;;;5071393;28;20109;-68
2020/12/16 07:13:35;;;;;;;84.72;20.55;;;4.30;99.90;;;;;;5025406;28;20134;-68
2020/12/16 07:16:07;;;;;;;78.55;21.50;;;4.40;99.90;;;;;;5027675;28;20050;-68
2020/12/16 07:18:55;;;;;;;41.58;18.80;;;4.50;99.90;;;;;;5058374;28;20059;-68
2020/12/16 07:21:28;;;;;;;34.58;15.95;;;4.60;99.90;;;;;;5056004;28;20048;-68
2020/12/16 07:24:13;;;;;;;35.05;16.10;;;4.70;99.90;;;;;;5063663;28;20048;-67
2020/12/16 07:26:46;;;;;;;28.77;14.95;;;4.80;99.90;;;;;;5075638;28;20052;-68
2020/12/16 07:29:25;;;;;;;24.02;14.05;;;4.90;99.90;;;;;;5074200;28;20499;-68
2020/12/16 07:32:00;;;;;;;24.15;13.50;;;5.00;99.90;;;;;;5075375;28;20063;-68
2020/12/16 07:34:27;;;;;;;21.83;13.57;;;4.90;99.90;;;;;;5070813;28;20150;-68
2020/12/16 07:36:56;;;;;;;23.27;14.68;;;4.80;99.90;;;;;;5067503;28;20091;-68
2020/12/16 07:39:23;;;;;;;19.85;12.68;;;5.00;99.90;;;;;;5064725;28;20076;-68
2020/12/16 07:41:50;;;;;;;20.08;13.07;;;4.80;99.90;;;;;;5075076;28;20068;-68
2020/12/16 07:44:19;;;;;;;17.15;11.15;;;4.70;99.90;;;;;;5075103;28;20083;-68
2020/12/16 07:46:46;;;;;;;15.45;11.25;;;4.70;99.90;;;;;;5058088;28;20444;-68
2020/12/16 07:49:13;;;;;;;15.70;11.40;;;4.90;99.90;;;;;;5062228;28;20045;-67
2020/12/16 07:51:40;;;;;;;14.88;10.93;;;5.20;99.90;;;;;;5059951;28;20061;-67
2020/12/16 07:54:07;;;;;;;13.60;10.50;;;5.30;99.90;;;;;;5056027;28;20508;-67
2020/12/16 07:56:36;;;;;;;13.98;10.32;;;5.30;99.90;;;;;;5059468;28;20495;-67
2020/12/16 07:59:13;;;;;;;11.73;9.02;;;5.20;99.90;;;;;;5055618;28;20145;-67
2020/12/16 08:01:40;;;;;;;12.27;9.15;;;5.20;99.90;;;;;;5069610;28;20047;-67
2020/12/16 08:04:06;;;;;;;11.38;8.63;;;5.30;99.90;;;;;;5057571;28;20126;-67
2020/12/16 08:06:33;;;;;;;11.45;8.80;;;5.60;99.90;;;;;;5052692;28;20088;-67
2020/12/16 08:09:00;;;;;;;10.50;8.32;;;5.90;99.90;;;;;;5069326;28;20049;-67
2020/12/16 08:11:28;;;;;;;15.43;11.70;;;6.00;99.90;;;;;;5060285;28;20602;-67
2020/12/16 08:14:04;;;;;;;14.65;10.82;;;6.20;99.90;;;;;;5059947;28;20048;-67
2020/12/16 08:16:31;;;;;;;13.40;10.57;;;6.40;99.90;;;;;;5067771;28;20045;-67
2020/12/16 08:18:58;;;;;;;21.05;11.52;;;6.60;99.90;;;;;;5052904;28;20084;-67
2020/12/16 08:21:25;;;;;;;15.77;10.95;;;6.80;99.90;;;;;;5060929;28;20067;-67
2020/12/16 08:23:53;;;;;;;12.75;10.13;;;7.00;99.90;;;;;;5052431;28;20044;-67
2020/12/16 08:26:21;;;;;;;12.18;10.20;;;7.40;99.90;;;;;;5054484;28;20103;-67
2020/12/16 08:28:51;;;;;;;13.15;9.70;;;8.00;99.90;;;;;;5067195;28;20056;-67
2020/12/16 08:31:19;;;;;;;12.38;9.82;;;7.90;99.90;;;;;;5066468;28;20456;-67
2020/12/16 08:33:48;;;;;;;14.82;10.10;;;7.70;99.90;;;;;;5060471;28;20048;-67
2020/12/16 08:36:26;;;;;;;14.93;10.35;;;8.00;99.90;;;;;;5069159;28;20048;-67
2020/12/16 08:38:54;;;;;;;12.85;10.23;;;7.70;99.90;;;;;;5057796;28;20053;-67
2020/12/16 08:41:26;;;;;;;13.15;9.80;;;7.60;99.90;;;;;;5059327;28;20056;-67
2020/12/16 08:43:54;;;;;;;11.48;9.43;;;7.80;99.90;;;;;;5061772;28;20461;-67
2020/12/16 08:46:23;;;;;;;14.35;9.73;;;7.70;99.90;;;;;;5063535;28;20084;-67
2020/12/16 08:48:52;;;;;;;11.40;8.73;;;7.80;99.90;;;;;;5070286;28;20074;-68
2020/12/16 08:51:20;;;;;;;14.30;9.52;;;8.20;99.90;;;;;;5063515;28;20075;-68
2020/12/16 08:53:50;;;;;;;14.73;9.18;;;8.50;99.90;;;;;;5062729;28;20098;-68
2020/12/16 08:56:25;;;;;;;10.02;7.35;;;9.50;99.90;;;;;;5061456;28;20431;-68
2020/12/16 08:59:10;;;;;;;8.38;6.82;;;10.80;99.90;;;;;;5054323;28;20063;-68
2020/12/16 09:01:38;;;;;;;7.53;6.38;;;12.10;99.90;;;;;;5060971;28;20055;-68
2020/12/16 09:04:06;;;;;;;11.60;6.63;;;13.00;99.90;;;;;;5055417;28;20045;-68
2020/12/16 09:06:32;;;;;;;6.47;5.78;;;13.60;99.90;;;;;;5052878;28;20049;-68
2020/12/16 09:08:59;;;;;;;7.78;6.50;;;14.10;99.90;;;;;;5065775;28;20082;-68
2020/12/16 09:11:26;;;;;;;7.07;6.38;;;14.70;99.90;;;;;;5063489;28;20041;-68
2020/12/16 09:13:59;;;;;;;7.75;6.50;;;15.20;99.90;;;;;;5061210;28;20072;-68
2020/12/16 09:16:27;;;;;;;6.40;5.80;;;15.60;98.00;;;;;;5068006;28;20052;-68
2020/12/16 09:18:54;;;;;;;7.40;5.65;;;16.10;96.00;;;;;;5067025;28;20059;-68
2020/12/16 09:21:33;;;;;;;8.20;5.75;;;16.40;95.10;;;;;;5062799;28;20552;-68
2020/12/16 09:24:00;;;;;;;9.07;6.10;;;16.90;93.10;;;;;;5054470;28;20045;-68
2020/12/16 09:26:35;;;;;;;7.90;5.90;;;17.30;91.20;;;;;;5052572;28;20061;-66
2020/12/16 09:29:12;;;;;;;6.28;5.68;;;17.70;90.60;;;;;;5066123;28;20057;-66
2020/12/16 09:31:40;;;;;;;7.15;5.72;;;18.00;87.30;;;;;;5066503;28;20098;-68
2020/12/16 09:34:06;;;;;;;9.65;8.73;;;18.30;85.30;;;;;;5059542;28;20071;-67
2020/12/16 09:36:33;;;;;;;8.82;8.02;;;18.60;83.00;;;;;;5061825;28;20056;-67
2020/12/16 09:39:02;;;;;;;8.95;8.07;;;18.80;80.50;;;;;;5063400;28;20049;-68
2020/12/16 09:41:31;;;;;;;8.63;7.82;;;19.00;79.90;;;;;;5071483;28;20044;-68
2020/12/16 09:43:58;;;;;;;8.52;7.63;;;19.30;77.70;;;;;;5070863;28;20048;-68
2020/12/16 09:46:25;;;;;;;8.27;7.53;;;19.30;77.20;;;;;;5072287;28;20143;-68
2020/12/16 09:49:01;;;;;;;7.05;6.40;;;19.60;74.70;;;;;;5072578;28;20102;-68
2020/12/16 09:51:29;;;;;;;7.50;6.60;;;19.50;73.90;;;;;;5056115;28;20117;-68
2020/12/16 09:53:57;;;;;;;8.70;7.47;;;18.40;76.40;;;;;;5056899;28;20145;-68
2020/12/16 09:56:24;;;;;;;8.38;7.57;;;17.50;80.30;;;;;;5057710;28;20505;-68
2020/12/16 09:58:51;;;;;;;8.30;7.50;;;16.90;82.10;;;;;;5061139;28;20103;-68
2020/12/16 10:01:17;;;;;;;9.10;8.20;;;16.10;87.30;;;;;;5070517;28;20056;-67
2020/12/16 10:03:48;;;;;;;9.10;8.07;;;15.50;89.90;;;;;;5058681;28;20563;-67
2020/12/16 10:06:16;;;;;;;8.50;7.47;;;14.90;91.80;;;;;;5068451;28;20080;-67
2020/12/16 10:08:44;;;;;;;9.40;8.50;;;14.20;94.80;;;;;;5070676;28;20083;-67
2020/12/16 10:11:12;;;;;;;9.25;8.35;;;13.80;97.00;;;;;;5063207;28;20059;-67
2020/12/16 10:13:39;;;;;;;10.07;8.70;;;13.30;99.90;;;;;;5072128;28;20527;-67
2020/12/16 10:16:07;;;;;;;10.35;8.98;;;12.90;99.90;;;;;;5067880;28;20049;-68
2020/12/16 10:18:34;;;;;;;10.82;9.73;;;12.70;99.90;;;;;;5071306;28;20518;-67
2020/12/16 10:21:00;;;;;;;11.13;10.02;;;13.00;99.90;;;;;;5053686;28;20045;-67
2020/12/16 10:23:28;;;;;;;10.43;9.43;;;14.30;99.90;;;;;;5070291;28;20136;-67
2020/12/16 10:25:54;;;;;;;9.60;8.70;;;15.60;99.90;;;;;;5055358;28;20474;-67
2020/12/16 10:28:21;;;;;;;10.27;9.38;;;16.80;99.60;;;;;;5071390;28;20057;-67
2020/12/16 10:30:48;;;;;;;11.32;10.32;;;17.60;96.30;;;;;;5071739;28;20053;-68
2020/12/16 10:33:15;;;;;;;12.23;11.23;;;18.30;94.50;;;;;;5070489;28;20051;-67
2020/12/16 10:35:42;;;;;;;11.55;10.63;;;19.10;92.40;;;;;;5057157;28;20053;-68
2020/12/16 10:38:11;;;;;;;11.48;10.43;;;19.80;90.00;;;;;;5056803;28;20501;-68
2020/12/16 10:40:38;;;;;;;10.30;9.52;;;20.40;86.80;;;;;;5072413;28;20468;-68
2020/12/16 10:43:07;;;;;;;10.77;9.80;;;20.40;83.20;;;;;;5070390;28;20048;-68
2020/12/16 10:45:34;;;;;;;10.40;9.50;;;21.00;79.70;;;;;;5070441;28;20462;-68
2020/12/16 10:48:00;;;;;;;11.13;10.23;;;21.60;79.20;;;;;;5073100;28;20105;-68
2020/12/16 10:50:30;;;;;;;12.75;11.65;;;22.20;75.10;;;;;;5072730;28;20059;-68
2020/12/16 10:52:57;;;;;;;12.68;11.60;;;22.50;73.50;;;;;;5068980;28;20044;-67
2020/12/16 10:55:27;;;;;;;12.02;11.07;;;22.40;72.80;;;;;;5074367;28;20079;-68
2020/12/16 10:57:54;;;;;;;12.40;11.40;;;22.80;71.20;;;;;;5069823;28;20404;-66
2020/12/16 11:00:21;;;;;;;13.10;12.30;;;23.20;69.20;;;;;;5075814;28;20056;-64
2020/12/16 11:02:49;;;;;;;13.02;12.18;;;23.00;68.60;;;;;;5066051;28;20084;-71
2020/12/16 11:05:16;;;;;;;11.98;11.18;;;23.20;69.40;;;;;;5072431;28;20364;-66
2020/12/16 11:07:42;;;;;;;11.75;10.80;;;22.80;68.90;;;;;;5075534;28;20045;-66
2020/12/16 11:10:10;;;;;;;11.35;10.65;;;23.40;68.40;;;;;;5063061;28;20114;-67
2020/12/16 11:12:36;;;;;;;11.70;10.90;;;23.80;66.60;;;;;;5072212;28;20052;-68
2020/12/16 11:15:06;;;;;;;13.82;12.85;;;23.90;65.80;;;;;;5067218;28;20088;-67
2020/12/16 11:17:32;;;;;;;12.23;11.43;;;23.90;65.50;;;;;;5073861;28;20048;-67
2020/12/16 11:20:01;;;;;;;12.57;11.77;;;24.20;65.70;;;;;;5075777;28;20087;-68
2020/12/16 11:22:27;;;;;;;;;;;24.30;64.70;;;;;;5074652;28;20051;-67
2020/12/16 11:24:56;;;;;;;12.80;12.00;;;24.10;64.90;;;;;;5073283;28;19921;-67
2020/12/16 11:27:23;;;;;;;16.30;15.18;;;24.00;65.10;;;;;;5067809;28;20109;-67
2020/12/16 11:29:50;;;;;;;15.32;14.43;;;23.70;67.50;;;;;;5075139;28;20048;-67
2020/12/16 11:32:19;;;;;;;17.52;16.63;;;24.40;64.90;;;;;;5075591;28;20070;-67
2020/12/16 11:34:46;;;;;;;1999.90;999.90;;;24.50;63.80;;;;;;5075112;28;20037;-67
2020/12/16 11:37:14;;;;;;;1999.90;999.90;;;24.80;63.10;;;;;;5064890;28;20060;-68
2020/12/16 11:39:40;;;;;;;1999.90;999.90;;;25.00;63.60;;;;;;5066358;28;20098;-67
2020/12/16 11:42:09;;;;;;;17.38;16.48;;;25.20;62.30;;;;;;5074084;28;20477;-67
2020/12/16 11:44:37;;;;;;;17.52;16.63;;;25.20;62.00;;;;;;5075324;28;20044;-67
2020/12/16 11:47:06;;;;;;;17.95;16.95;;;25.00;62.20;;;;;;5065745;28;20076;-68
2020/12/16 11:49:32;;;;;;;17.80;16.95;;;25.00;62.90;;;;;;5055414;28;20057;-68
2020/12/16 11:51:59;;;;;;;17.60;16.70;;;25.10;61.50;;;;;;5063041;28;20543;-68
2020/12/16 11:54:26;;;;;;;12.18;11.38;;;24.30;64.90;;;;;;5074416;28;20405;-67
2020/12/16 11:56:53;;;;;;;14.75;14.02;;;25.00;64.60;;;;;;5068691;28;20057;-67
2020/12/16 11:59:19;;;;;;;15.38;14.63;;;25.40;63.60;;;;;;5074151;28;20143;-68
2020/12/16 12:01:47;;;;;;;20.35;19.40;;;25.40;60.80;;;;;;5071631;28;20048;-68
2020/12/16 12:04:13;;;;;;;1999.90;999.90;;;25.50;61.70;;;;;;5061352;28;20048;-67
2020/12/16 12:06:43;;;;;;;1999.90;999.90;;;25.70;60.60;;;;;;5068610;28;20049;-67
2020/12/16 12:09:10;;;;;;;10.30;9.70;;;25.70;61.50;;;;;;5062752;28;20482;-67
2020/12/16 12:11:36;;;;;;;5.38;4.45;;;25.30;61.50;;;;;;5074422;28;20044;-67
2020/12/16 12:14:03;;;;;;;11.48;10.88;;;24.80;62.00;;;;;;5073024;28;20136;-67
2020/12/16 12:16:30;;;;;;;3.95;3.38;;;24.50;63.70;;;;;;5068578;28;20045;-67
2020/12/16 12:18:57;;;;;;;5.10;3.90;;;24.30;65.10;;;;;;5062655;28;20068;-67
2020/12/16 12:21:26;;;;;;;5.38;4.05;;;23.10;66.20;;;;;;5054435;28;20435;-67
2020/12/16 12:23:52;;;;;;;;;;;22.30;68.70;;;;;;5054809;28;20053;-67
2020/12/16 12:26:19;;;;;;;4.15;3.70;;;21.80;71.00;;;;;;5057526;28;19920;-67
2020/12/16 12:28:45;;;;;;;2.75;1.85;;;21.10;73.30;;;;;;5069150;28;20135;-67
2020/12/16 12:31:12;;;;;;;2.58;2.00;;;20.10;76.20;;;;;;5066426;28;20099;-67
2020/12/16 12:33:39;;;;;;;2.45;2.00;;;19.80;79.10;;;;;;5059895;28;20561;-67
2020/12/16 12:36:07;;;;;;;2.58;2.05;;;19.60;79.80;;;;;;5065637;28;20127;-67
2020/12/16 12:38:33;;;;;;;2.25;1.65;;;19.30;80.80;;;;;;5070225;28;20136;-67
2020/12/16 12:41:00;;;;;;;2.35;1.83;;;18.80;82.20;;;;;;5072420;28;20087;-67
2020/12/16 12:43:26;;;;;;;5.20;4.90;;;18.30;86.10;;;;;;5069752;28;20060;-67
2020/12/16 12:45:53;;;;;;;5.78;5.47;;;18.40;88.50;;;;;;5054480;28;20462;-67
2020/12/16 12:48:19;;;;;;;2.72;2.53;;;18.70;92.80;;;;;;5067743;28;20044;-67